sensor_id;sensor_type;location;lat;lon;timestamp;P1;durP1;ratioP1;P2;durP2;ratioP2
12848;SDS011;6493;50.928;7.172;2022-10-16T00:07:53;0.93;;;0.40;;
12848;SDS011;6493;50.928;7.172;2022-10-16T00:12:57;0.30;;;0.30;;
12848;SDS011;6493;50.928;7.172;2022-10-16T00:18:26;0.30;;;0.30;;
12848;SDS011;6493;50.928;7.172;2022-10-16T00:29:03;0.20;;;0.20;;
12848;SDS011;6493;50.928;7.172;2022-10-16T00:34:33;0.40;;;0.30;;
12848;SDS011;6493;50.928;7.172;2022-10-16T00:45:10;0.20;;;0.20;;
12848;SDS011;6493;50.928;7.172;2022-10-16T00:50:39;0.20;;;0.20;;
12848;SDS011;6493;50.928;7.172;2022-10-16T01:01:14;0.20;;;0.20;;
12848;SDS011;6493;50.928;7.172;2022-10-16T01:17:32;0.20;;;0.20;;
12848;SDS011;6493;50.928;7.172;2022-10-16T01:28:20;0.30;;;0.30;;
12848;SDS011;6493;50.928;7.172;2022-10-16T01:33:51;0.20;;;0.20;;
12848;SDS011;6493;50.928;7.172;2022-10-16T01:39:24;0.20;;;0.20;;
12848;SDS011;6493;50.928;7.172;2022-10-16T01:44:59;0.33;;;0.33;;
12848;SDS011;6493;50.928;7.172;2022-10-16T01:50:28;0.20;;;0.20;;
12848;SDS011;6493;50.928;7.172;2022-10-16T01:55:56;0.20;;;0.20;;
12848;SDS011;6493;50.928;7.172;2022-10-16T02:01:27;0.20;;;0.20;;
12848;SDS011;6493;50.928;7.172;2022-10-16T02:18:02;0.10;;;0.10;;
12848;SDS011;6493;50.928;7.172;2022-10-16T02:23:33;0.20;;;0.20;;
12848;SDS011;6493;50.928;7.172;2022-10-16T02:29:07;0.20;;;0.20;;
12848;SDS011;6493;50.928;7.172;2022-10-16T02:34:40;0.27;;;0.27;;
12848;SDS011;6493;50.928;7.172;2022-10-16T02:40:08;0.20;;;0.20;;
12848;SDS011;6493;50.928;7.172;2022-10-16T02:45:37;0.10;;;0.10;;
12848;SDS011;6493;50.928;7.172;2022-10-16T02:56:14;0.20;;;0.20;;
12848;SDS011;6493;50.928;7.172;2022-10-16T03:06:52;0.30;;;0.30;;
12848;SDS011;6493;50.928;7.172;2022-10-16T03:17:52;0.20;;;0.20;;
12848;SDS011;6493;50.928;7.172;2022-10-16T03:22:57;0.23;;;0.23;;
12848;SDS011;6493;50.928;7.172;2022-10-16T03:28:25;0.10;;;0.10;;
12848;SDS011;6493;50.928;7.172;2022-10-16T03:39:02;0.10;;;0.10;;
12848;SDS011;6493;50.928;7.172;2022-10-16T03:44:30;0.13;;;0.13;;
12848;SDS011;6493;50.928;7.172;2022-10-16T03:49:58;0.37;;;0.23;;
12848;SDS011;6493;50.928;7.172;2022-10-16T03:55:05;0.27;;;0.27;;
12848;SDS011;6493;50.928;7.172;2022-10-16T04:00:10;0.20;;;0.20;;
12848;SDS011;6493;50.928;7.172;2022-10-16T04:05:39;1.13;;;0.30;;
12848;SDS011;6493;50.928;7.172;2022-10-16T04:27:12;0.93;;;0.30;;
12848;SDS011;6493;50.928;7.172;2022-10-16T04:32:19;0.13;;;0.13;;
12848;SDS011;6493;50.928;7.172;2022-10-16T04:37:23;0.77;;;0.20;;
12848;SDS011;6493;50.928;7.172;2022-10-16T04:42:52;0.10;;;0.10;;
12848;SDS011;6493;50.928;7.172;2022-10-16T04:53:29;0.27;;;0.20;;
12848;SDS011;6493;50.928;7.172;2022-10-16T04:58:58;0.40;;;0.40;;
12848;SDS011;6493;50.928;7.172;2022-10-16T05:04:25;0.10;;;0.10;;
12848;SDS011;6493;50.928;7.172;2022-10-16T05:09:31;0.60;;;0.20;;
12848;SDS011;6493;50.928;7.172;2022-10-16T05:14:36;1.70;;;0.20;;
12848;SDS011;6493;50.928;7.172;2022-10-16T05:30:42;0.00;;;0.00;;
12848;SDS011;6493;50.928;7.172;2022-10-16T05:41:15;0.30;;;0.20;;
12848;SDS011;6493;50.928;7.172;2022-10-16T05:51:53;0.10;;;0.10;;
12848;SDS011;6493;50.928;7.172;2022-10-16T06:02:30;0.20;;;0.20;;
12848;SDS011;6493;50.928;7.172;2022-10-16T06:07:58;0.20;;;0.20;;
12848;SDS011;6493;50.928;7.172;2022-10-16T06:13:26;0.23;;;0.23;;
12848;SDS011;6493;50.928;7.172;2022-10-16T06:18:55;0.10;;;0.10;;
12848;SDS011;6493;50.928;7.172;2022-10-16T06:29:52;0.27;;;0.13;;
12848;SDS011;6493;50.928;7.172;2022-10-16T06:34:57;0.20;;;0.20;;
12848;SDS011;6493;50.928;7.172;2022-10-16T06:40:25;0.30;;;0.30;;
12848;SDS011;6493;50.928;7.172;2022-10-16T06:45:53;1.33;;;0.13;;
12848;SDS011;6493;50.928;7.172;2022-10-16T06:51:23;0.30;;;0.30;;
12848;SDS011;6493;50.928;7.172;2022-10-16T06:56:52;0.20;;;0.20;;
12848;SDS011;6493;50.928;7.172;2022-10-16T07:02:19;0.20;;;0.20;;
12848;SDS011;6493;50.928;7.172;2022-10-16T07:12:57;0.40;;;0.40;;
12848;SDS011;6493;50.928;7.172;2022-10-16T07:18:07;0.30;;;0.30;;
12848;SDS011;6493;50.928;7.172;2022-10-16T07:23:13;0.30;;;0.30;;
12848;SDS011;6493;50.928;7.172;2022-10-16T07:34:14;0.23;;;0.20;;
12848;SDS011;6493;50.928;7.172;2022-10-16T07:39:20;0.30;;;0.30;;
12848;SDS011;6493;50.928;7.172;2022-10-16T07:44:48;1.03;;;0.27;;
12848;SDS011;6493;50.928;7.172;2022-10-16T07:50:16;0.27;;;0.27;;
12848;SDS011;6493;50.928;7.172;2022-10-16T08:00:54;0.50;;;0.30;;
12848;SDS011;6493;50.928;7.172;2022-10-16T08:06:22;0.23;;;0.23;;
12848;SDS011;6493;50.928;7.172;2022-10-16T08:11:51;0.20;;;0.20;;
12848;SDS011;6493;50.928;7.172;2022-10-16T08:17:19;0.30;;;0.30;;
12848;SDS011;6493;50.928;7.172;2022-10-16T08:27:53;0.30;;;0.30;;
12848;SDS011;6493;50.928;7.172;2022-10-16T08:44:27;0.40;;;0.40;;
12848;SDS011;6493;50.928;7.172;2022-10-16T08:50:02;0.63;;;0.40;;
12848;SDS011;6493;50.928;7.172;2022-10-16T09:00:47;0.53;;;0.40;;
12848;SDS011;6493;50.928;7.172;2022-10-16T09:06:20;0.30;;;0.30;;
12848;SDS011;6493;50.928;7.172;2022-10-16T09:12:03;0.30;;;0.30;;
12848;SDS011;6493;50.928;7.172;2022-10-16T09:44:40;0.20;;;0.20;;
12848;SDS011;6493;50.928;7.172;2022-10-16T09:49:50;0.30;;;0.30;;
12848;SDS011;6493;50.928;7.172;2022-10-16T09:54:55;0.40;;;0.40;;
12848;SDS011;6493;50.928;7.172;2022-10-16T10:00:04;0.37;;;0.30;;
12848;SDS011;6493;50.928;7.172;2022-10-16T10:05:18;0.40;;;0.40;;
12848;SDS011;6493;50.928;7.172;2022-10-16T10:10:24;0.30;;;0.30;;
12848;SDS011;6493;50.928;7.172;2022-10-16T10:15:34;0.40;;;0.40;;
12848;SDS011;6493;50.928;7.172;2022-10-16T10:20:44;0.30;;;0.30;;
12848;SDS011;6493;50.928;7.172;2022-10-16T10:25:49;0.83;;;0.50;;
12848;SDS011;6493;50.928;7.172;2022-10-16T10:31:00;0.83;;;0.50;;
12848;SDS011;6493;50.928;7.172;2022-10-16T10:36:12;0.30;;;0.30;;
12848;SDS011;6493;50.928;7.172;2022-10-16T10:47:04;0.50;;;0.50;;
12848;SDS011;6493;50.928;7.172;2022-10-16T10:52:28;0.33;;;0.30;;
12848;SDS011;6493;50.928;7.172;2022-10-16T10:57:38;0.30;;;0.30;;
12848;SDS011;6493;50.928;7.172;2022-10-16T11:02:50;0.17;;;0.17;;
12848;SDS011;6493;50.928;7.172;2022-10-16T11:08:02;0.30;;;0.30;;
12848;SDS011;6493;50.928;7.172;2022-10-16T11:13:16;0.30;;;0.30;;
12848;SDS011;6493;50.928;7.172;2022-10-16T11:18:32;0.30;;;0.20;;
12848;SDS011;6493;50.928;7.172;2022-10-16T11:23:46;0.30;;;0.23;;
12848;SDS011;6493;50.928;7.172;2022-10-16T11:28:56;0.30;;;0.30;;
12848;SDS011;6493;50.928;7.172;2022-10-16T11:34:03;0.30;;;0.30;;
12848;SDS011;6493;50.928;7.172;2022-10-16T11:39:19;0.37;;;0.30;;
12848;SDS011;6493;50.928;7.172;2022-10-16T11:44:27;0.30;;;0.30;;
12848;SDS011;6493;50.928;7.172;2022-10-16T11:49:40;0.40;;;0.40;;
12848;SDS011;6493;50.928;7.172;2022-10-16T11:54:45;0.20;;;0.20;;
12848;SDS011;6493;50.928;7.172;2022-10-16T11:59:54;0.30;;;0.30;;
12848;SDS011;6493;50.928;7.172;2022-10-16T12:05:06;0.37;;;0.30;;
12848;SDS011;6493;50.928;7.172;2022-10-16T12:10:22;0.30;;;0.30;;
12848;SDS011;6493;50.928;7.172;2022-10-16T12:15:30;0.30;;;0.30;;
12848;SDS011;6493;50.928;7.172;2022-10-16T12:20:56;0.30;;;0.30;;
12848;SDS011;6493;50.928;7.172;2022-10-16T12:26:01;0.27;;;0.20;;
12848;SDS011;6493;50.928;7.172;2022-10-16T12:31:05;0.23;;;0.23;;
12848;SDS011;6493;50.928;7.172;2022-10-16T12:36:13;0.30;;;0.30;;
12848;SDS011;6493;50.928;7.172;2022-10-16T12:41:29;0.20;;;0.20;;
12848;SDS011;6493;50.928;7.172;2022-10-16T12:46:35;0.33;;;0.33;;
12848;SDS011;6493;50.928;7.172;2022-10-16T12:51:43;0.50;;;0.37;;
12848;SDS011;6493;50.928;7.172;2022-10-16T12:56:50;0.20;;;0.20;;
12848;SDS011;6493;50.928;7.172;2022-10-16T13:02:15;0.30;;;0.30;;
12848;SDS011;6493;50.928;7.172;2022-10-16T13:07:43;0.83;;;0.30;;
12848;SDS011;6493;50.928;7.172;2022-10-16T13:13:08;0.20;;;0.20;;
12848;SDS011;6493;50.928;7.172;2022-10-16T13:18:25;0.30;;;0.30;;
12848;SDS011;6493;50.928;7.172;2022-10-16T13:23:36;0.30;;;0.30;;
12848;SDS011;6493;50.928;7.172;2022-10-16T13:28:45;0.53;;;0.30;;
12848;SDS011;6493;50.928;7.172;2022-10-16T13:33:49;0.50;;;0.40;;
12848;SDS011;6493;50.928;7.172;2022-10-16T13:44:24;0.40;;;0.40;;
12848;SDS011;6493;50.928;7.172;2022-10-16T13:49:27;0.40;;;0.30;;
12848;SDS011;6493;50.928;7.172;2022-10-16T13:54:32;0.40;;;0.40;;
12848;SDS011;6493;50.928;7.172;2022-10-16T13:59:36;0.47;;;0.40;;
12848;SDS011;6493;50.928;7.172;2022-10-16T14:04:40;0.30;;;0.30;;
12848;SDS011;6493;50.928;7.172;2022-10-16T14:09:47;0.30;;;0.30;;
12848;SDS011;6493;50.928;7.172;2022-10-16T14:14:53;0.40;;;0.40;;
12848;SDS011;6493;50.928;7.172;2022-10-16T14:19:58;0.37;;;0.37;;
12848;SDS011;6493;50.928;7.172;2022-10-16T14:25:21;0.23;;;0.23;;
12848;SDS011;6493;50.928;7.172;2022-10-16T14:30:29;0.50;;;0.50;;
12848;SDS011;6493;50.928;7.172;2022-10-16T14:35:38;0.57;;;0.57;;
12848;SDS011;6493;50.928;7.172;2022-10-16T14:41:05;0.60;;;0.40;;
12848;SDS011;6493;50.928;7.172;2022-10-16T14:46:10;0.43;;;0.40;;
12848;SDS011;6493;50.928;7.172;2022-10-16T14:51:17;0.30;;;0.30;;
12848;SDS011;6493;50.928;7.172;2022-10-16T14:56:23;0.23;;;0.23;;
12848;SDS011;6493;50.928;7.172;2022-10-16T15:01:34;0.47;;;0.30;;
12848;SDS011;6493;50.928;7.172;2022-10-16T15:06:38;0.27;;;0.27;;
12848;SDS011;6493;50.928;7.172;2022-10-16T15:11:43;0.30;;;0.30;;
12848;SDS011;6493;50.928;7.172;2022-10-16T15:16:48;0.20;;;0.20;;
12848;SDS011;6493;50.928;7.172;2022-10-16T15:21:51;0.20;;;0.20;;
12848;SDS011;6493;50.928;7.172;2022-10-16T15:26:56;0.30;;;0.30;;
12848;SDS011;6493;50.928;7.172;2022-10-16T15:32:00;0.30;;;0.30;;
12848;SDS011;6493;50.928;7.172;2022-10-16T15:37:03;0.40;;;0.40;;
12848;SDS011;6493;50.928;7.172;2022-10-16T15:42:08;0.70;;;0.47;;
12848;SDS011;6493;50.928;7.172;2022-10-16T15:47:12;0.40;;;0.40;;
12848;SDS011;6493;50.928;7.172;2022-10-16T15:52:15;0.40;;;0.40;;
12848;SDS011;6493;50.928;7.172;2022-10-16T15:57:20;0.70;;;0.50;;
12848;SDS011;6493;50.928;7.172;2022-10-16T16:02:25;0.50;;;0.40;;
12848;SDS011;6493;50.928;7.172;2022-10-16T16:07:32;0.47;;;0.40;;
12848;SDS011;6493;50.928;7.172;2022-10-16T16:12:37;0.80;;;0.30;;
12848;SDS011;6493;50.928;7.172;2022-10-16T16:17:41;0.20;;;0.20;;
12848;SDS011;6493;50.928;7.172;2022-10-16T16:22:45;0.40;;;0.40;;
12848;SDS011;6493;50.928;7.172;2022-10-16T16:27:50;0.20;;;0.20;;
12848;SDS011;6493;50.928;7.172;2022-10-16T16:32:54;0.57;;;0.50;;
12848;SDS011;6493;50.928;7.172;2022-10-16T16:37:58;0.73;;;0.60;;
12848;SDS011;6493;50.928;7.172;2022-10-16T16:43:03;0.40;;;0.40;;
12848;SDS011;6493;50.928;7.172;2022-10-16T16:48:06;0.37;;;0.37;;
12848;SDS011;6493;50.928;7.172;2022-10-16T16:53:10;0.60;;;0.40;;
12848;SDS011;6493;50.928;7.172;2022-10-16T16:58:15;0.40;;;0.40;;
12848;SDS011;6493;50.928;7.172;2022-10-16T17:03:18;0.60;;;0.40;;
12848;SDS011;6493;50.928;7.172;2022-10-16T17:08:22;0.37;;;0.30;;
12848;SDS011;6493;50.928;7.172;2022-10-16T17:13:27;0.30;;;0.30;;
12848;SDS011;6493;50.928;7.172;2022-10-16T17:18:33;0.20;;;0.20;;
12848;SDS011;6493;50.928;7.172;2022-10-16T17:23:37;1.90;;;0.40;;
12848;SDS011;6493;50.928;7.172;2022-10-16T17:28:42;0.50;;;0.40;;
12848;SDS011;6493;50.928;7.172;2022-10-16T17:33:46;0.57;;;0.50;;
12848;SDS011;6493;50.928;7.172;2022-10-16T17:38:50;0.57;;;0.50;;
12848;SDS011;6493;50.928;7.172;2022-10-16T17:43:55;0.50;;;0.50;;
12848;SDS011;6493;50.928;7.172;2022-10-16T17:48:59;0.40;;;0.40;;
12848;SDS011;6493;50.928;7.172;2022-10-16T17:54:02;1.20;;;0.63;;
12848;SDS011;6493;50.928;7.172;2022-10-16T17:59:08;1.03;;;0.70;;
12848;SDS011;6493;50.928;7.172;2022-10-16T18:04:14;0.50;;;0.40;;
12848;SDS011;6493;50.928;7.172;2022-10-16T18:09:18;0.70;;;0.60;;
12848;SDS011;6493;50.928;7.172;2022-10-16T18:14:24;1.80;;;0.50;;
12848;SDS011;6493;50.928;7.172;2022-10-16T18:19:28;0.50;;;0.50;;
12848;SDS011;6493;50.928;7.172;2022-10-16T18:24:32;0.57;;;0.40;;
12848;SDS011;6493;50.928;7.172;2022-10-16T18:29:37;0.43;;;0.40;;
12848;SDS011;6493;50.928;7.172;2022-10-16T18:34:40;0.57;;;0.50;;
12848;SDS011;6493;50.928;7.172;2022-10-16T18:39:45;0.93;;;0.77;;
12848;SDS011;6493;50.928;7.172;2022-10-16T18:44:50;0.47;;;0.47;;
12848;SDS011;6493;50.928;7.172;2022-10-16T18:49:54;0.43;;;0.40;;
12848;SDS011;6493;50.928;7.172;2022-10-16T18:54:57;0.60;;;0.47;;
12848;SDS011;6493;50.928;7.172;2022-10-16T19:00:03;0.30;;;0.30;;
12848;SDS011;6493;50.928;7.172;2022-10-16T19:05:07;0.47;;;0.47;;
12848;SDS011;6493;50.928;7.172;2022-10-16T19:10:16;0.50;;;0.50;;
12848;SDS011;6493;50.928;7.172;2022-10-16T19:15:21;0.80;;;0.53;;
12848;SDS011;6493;50.928;7.172;2022-10-16T19:20:25;0.47;;;0.47;;
12848;SDS011;6493;50.928;7.172;2022-10-16T19:25:28;0.73;;;0.53;;
12848;SDS011;6493;50.928;7.172;2022-10-16T19:30:35;0.70;;;0.57;;
12848;SDS011;6493;50.928;7.172;2022-10-16T19:35:39;0.60;;;0.60;;
12848;SDS011;6493;50.928;7.172;2022-10-16T19:40:43;2.00;;;0.60;;
12848;SDS011;6493;50.928;7.172;2022-10-16T19:45:48;0.70;;;0.70;;
12848;SDS011;6493;50.928;7.172;2022-10-16T19:50:51;0.50;;;0.50;;
12848;SDS011;6493;50.928;7.172;2022-10-16T19:55:55;0.70;;;0.70;;
12848;SDS011;6493;50.928;7.172;2022-10-16T20:01:01;0.83;;;0.80;;
12848;SDS011;6493;50.928;7.172;2022-10-16T20:06:05;2.87;;;0.90;;
12848;SDS011;6493;50.928;7.172;2022-10-16T20:11:09;0.93;;;0.90;;
12848;SDS011;6493;50.928;7.172;2022-10-16T20:16:17;0.80;;;0.80;;
12848;SDS011;6493;50.928;7.172;2022-10-16T20:21:21;1.03;;;0.93;;
12848;SDS011;6493;50.928;7.172;2022-10-16T20:26:26;0.80;;;0.80;;
12848;SDS011;6493;50.928;7.172;2022-10-16T20:31:31;2.20;;;1.00;;
12848;SDS011;6493;50.928;7.172;2022-10-16T20:36:37;1.33;;;0.97;;
12848;SDS011;6493;50.928;7.172;2022-10-16T20:41:43;0.83;;;0.70;;
12848;SDS011;6493;50.928;7.172;2022-10-16T20:46:48;1.20;;;1.10;;
12848;SDS011;6493;50.928;7.172;2022-10-16T20:51:51;0.90;;;0.90;;
12848;SDS011;6493;50.928;7.172;2022-10-16T20:56:55;1.03;;;0.97;;
12848;SDS011;6493;50.928;7.172;2022-10-16T21:02:00;1.10;;;1.00;;
12848;SDS011;6493;50.928;7.172;2022-10-16T21:07:04;1.37;;;0.93;;
12848;SDS011;6493;50.928;7.172;2022-10-16T21:12:07;1.23;;;1.10;;
12848;SDS011;6493;50.928;7.172;2022-10-16T21:17:12;1.73;;;0.90;;
12848;SDS011;6493;50.928;7.172;2022-10-16T21:22:16;0.90;;;0.90;;
12848;SDS011;6493;50.928;7.172;2022-10-16T21:27:20;1.10;;;0.87;;
12848;SDS011;6493;50.928;7.172;2022-10-16T21:32:25;1.03;;;0.93;;
12848;SDS011;6493;50.928;7.172;2022-10-16T21:37:28;0.83;;;0.80;;
12848;SDS011;6493;50.928;7.172;2022-10-16T21:42:32;0.60;;;0.60;;
12848;SDS011;6493;50.928;7.172;2022-10-16T21:47:37;1.20;;;0.60;;
12848;SDS011;6493;50.928;7.172;2022-10-16T21:52:40;0.73;;;0.50;;
12848;SDS011;6493;50.928;7.172;2022-10-16T21:57:44;0.80;;;0.80;;
12848;SDS011;6493;50.928;7.172;2022-10-16T22:02:49;0.70;;;0.70;;
12848;SDS011;6493;50.928;7.172;2022-10-16T22:07:53;1.17;;;0.97;;
12848;SDS011;6493;50.928;7.172;2022-10-16T22:12:56;0.80;;;0.80;;
12848;SDS011;6493;50.928;7.172;2022-10-16T22:18:01;0.80;;;0.70;;
12848;SDS011;6493;50.928;7.172;2022-10-16T22:23:04;0.70;;;0.70;;
12848;SDS011;6493;50.928;7.172;2022-10-16T22:28:08;0.80;;;0.80;;
12848;SDS011;6493;50.928;7.172;2022-10-16T22:33:13;2.83;;;1.10;;
12848;SDS011;6493;50.928;7.172;2022-10-16T22:38:16;2.97;;;1.20;;
12848;SDS011;6493;50.928;7.172;2022-10-16T22:43:20;1.07;;;1.07;;
12848;SDS011;6493;50.928;7.172;2022-10-16T22:48:25;1.10;;;1.00;;
12848;SDS011;6493;50.928;7.172;2022-10-16T22:53:29;1.03;;;0.93;;
12848;SDS011;6493;50.928;7.172;2022-10-16T22:58:33;1.07;;;1.00;;
12848;SDS011;6493;50.928;7.172;2022-10-16T23:03:38;1.57;;;1.30;;
12848;SDS011;6493;50.928;7.172;2022-10-16T23:08:41;1.00;;;0.90;;
12848;SDS011;6493;50.928;7.172;2022-10-16T23:13:45;1.07;;;0.97;;
12848;SDS011;6493;50.928;7.172;2022-10-16T23:18:50;1.10;;;1.00;;
12848;SDS011;6493;50.928;7.172;2022-10-16T23:23:54;1.30;;;1.20;;
12848;SDS011;6493;50.928;7.172;2022-10-16T23:28:58;1.10;;;1.00;;
12848;SDS011;6493;50.928;7.172;2022-10-16T23:34:03;0.90;;;0.90;;
12848;SDS011;6493;50.928;7.172;2022-10-16T23:39:06;0.90;;;0.90;;
12848;SDS011;6493;50.928;7.172;2022-10-16T23:44:10;0.77;;;0.77;;
12848;SDS011;6493;50.928;7.172;2022-10-16T23:49:15;0.73;;;0.73;;
12848;SDS011;6493;50.928;7.172;2022-10-16T23:54:18;0.67;;;0.67;;
12848;SDS011;6493;50.928;7.172;2022-10-16T23:59:22;0.73;;;0.73;;
